createdAt,value
2018-09-21T00:00:19.614Z,1003.47
2018-09-21T00:01:19.603Z,1003.45
2018-09-21T00:02:19.615Z,1003.47
2018-09-21T00:03:19.581Z,1003.52
2018-09-21T00:04:19.570Z,1003.52
2018-09-21T00:05:19.560Z,1003.55
2018-09-21T00:06:19.548Z,1003.57
2018-09-21T00:07:19.561Z,1003.58
2018-09-21T00:08:19.527Z,1003.59
2018-09-21T00:09:19.517Z,1003.61
2018-09-21T00:10:19.504Z,1003.58
2018-09-21T00:11:19.493Z,1003.63
2018-09-21T00:12:19.508Z,1003.60
2018-09-21T00:13:19.472Z,1003.58
2018-09-21T00:14:19.462Z,1003.61
2018-09-21T00:15:19.449Z,1003.60
2018-09-21T00:16:19.438Z,1003.62
2018-09-21T00:17:19.452Z,1003.62
2018-09-21T00:18:19.416Z,1003.59
2018-09-21T00:19:19.405Z,1003.57
2018-09-21T00:20:19.394Z,1003.59
2018-09-21T00:21:19.384Z,1003.56
2018-09-21T00:22:19.398Z,1003.57
2018-09-21T00:23:19.364Z,1003.53
2018-09-21T00:24:19.351Z,1003.49
2018-09-21T00:25:19.339Z,1003.49
2018-09-21T00:26:19.328Z,1003.48
2018-09-21T00:27:19.341Z,1003.45
2018-09-21T00:28:19.309Z,1003.40
2018-09-21T00:29:19.295Z,1003.42
2018-09-21T00:30:19.287Z,1003.38
2018-09-21T00:31:19.276Z,1003.30
2018-09-21T00:32:19.286Z,1003.26
2018-09-21T00:33:19.251Z,1003.29
2018-09-21T00:34:19.240Z,1003.25
2018-09-21T00:35:19.230Z,1003.19
2018-09-21T00:36:19.219Z,1003.19
2018-09-21T00:37:19.232Z,1003.22
2018-09-21T00:38:19.195Z,1003.17
2018-09-21T00:39:19.184Z,1003.22
2018-09-21T00:40:19.176Z,1003.22
2018-09-21T00:41:19.164Z,1003.17
2018-09-21T00:42:19.176Z,1003.19
2018-09-21T00:43:19.140Z,1003.21
2018-09-21T00:44:19.129Z,1003.21
2018-09-21T00:45:19.119Z,1003.22
2018-09-21T00:46:19.107Z,1003.20
2018-09-21T00:47:19.098Z,1003.19
2018-09-21T00:48:19.113Z,1003.13
2018-09-21T00:49:19.075Z,1003.15
2018-09-21T00:50:19.062Z,1003.16
2018-09-21T00:51:19.057Z,1003.14
2018-09-21T00:52:19.067Z,1003.15
2018-09-21T00:53:19.030Z,1003.14
2018-09-21T00:54:19.018Z,1003.19
2018-09-21T00:55:19.008Z,1003.14
2018-09-21T00:56:18.996Z,1003.13
2018-09-21T00:57:18.988Z,1003.10
2018-09-21T00:58:19.001Z,1003.13
2018-09-21T00:59:18.962Z,1003.14
2018-09-21T01:00:18.951Z,1003.19
2018-09-21T01:01:18.940Z,1003.10
2018-09-21T01:02:18.931Z,1003.14
2018-09-21T01:03:18.945Z,1003.17
2018-09-21T01:04:18.911Z,1003.17
2018-09-21T01:05:18.898Z,1003.09
2018-09-21T01:06:18.884Z,1003.06
2018-09-21T01:07:18.876Z,1003.08
2018-09-21T01:08:18.889Z,1003.08
2018-09-21T01:09:18.851Z,1003.07
2018-09-21T01:10:18.841Z,1003.04
2018-09-21T01:11:18.829Z,1003.03
2018-09-21T01:12:18.819Z,1003.01
2018-09-21T01:13:18.829Z,1002.96
2018-09-21T01:14:18.795Z,1003.01
2018-09-21T01:15:18.784Z,1002.95
2018-09-21T01:16:18.775Z,1002.93
2018-09-21T01:17:18.762Z,1002.96
2018-09-21T01:18:18.776Z,1002.94
2018-09-21T01:19:18.740Z,1002.88
2018-09-21T01:20:18.730Z,1002.87
2018-09-21T01:21:18.717Z,1002.81
2018-09-21T01:22:18.709Z,1002.83
2018-09-21T01:23:18.725Z,1002.77
2018-09-21T01:24:18.685Z,1002.75
2018-09-21T01:25:18.674Z,1002.73
2018-09-21T01:26:18.665Z,1002.69
2018-09-21T01:27:18.651Z,1002.68
2018-09-21T01:28:18.665Z,1002.63
2018-09-21T01:29:18.628Z,1002.58
2018-09-21T01:30:18.618Z,1002.63
2018-09-21T01:31:18.609Z,1002.62
2018-09-21T01:32:18.597Z,1002.63
2018-09-21T01:33:18.609Z,1002.56
2018-09-21T01:34:18.605Z,1002.53
2018-09-21T01:35:18.577Z,1002.51
2018-09-21T01:36:18.551Z,1002.47
2018-09-21T01:37:18.541Z,1002.45
2018-09-21T01:38:18.552Z,1002.47
2018-09-21T01:39:18.519Z,1002.42
2018-09-21T01:40:18.508Z,1002.46
2018-09-21T01:41:18.496Z,1002.40
2018-09-21T01:42:18.514Z,1002.41
2018-09-21T01:43:18.501Z,1002.38
2018-09-21T01:44:18.487Z,1002.42
2018-09-21T01:45:18.453Z,1002.41
2018-09-21T01:46:18.440Z,1002.36
2018-09-21T01:47:18.430Z,1002.34
2018-09-21T01:48:18.457Z,1002.36
2018-09-21T01:49:18.410Z,1002.36
2018-09-21T01:50:18.450Z,1002.35
2018-09-21T01:51:18.386Z,1002.33
2018-09-21T01:52:18.387Z,1002.36
2018-09-21T01:53:18.387Z,1002.35
2018-09-21T01:54:18.352Z,1002.31
2018-09-21T01:55:18.342Z,1002.35
2018-09-21T01:56:18.332Z,1002.30
2018-09-21T01:57:18.318Z,1002.34
2018-09-21T01:58:18.333Z,1002.32
2018-09-21T01:59:18.296Z,1002.31
2018-09-21T02:00:18.285Z,1002.34
2018-09-21T02:01:18.275Z,1002.35
2018-09-21T02:02:18.262Z,1002.30
2018-09-21T02:03:18.276Z,1002.34
2018-09-21T02:04:18.241Z,1002.33
2018-09-21T02:05:18.232Z,1002.35
2018-09-21T02:06:18.220Z,1002.31
2018-09-21T02:07:18.208Z,1002.29
2018-09-21T02:08:18.222Z,1002.25
2018-09-21T02:09:18.185Z,1002.25
2018-09-21T02:10:18.176Z,1002.21
2018-09-21T02:11:18.164Z,1002.17
2018-09-21T02:12:18.153Z,1002.18
2018-09-21T02:13:18.167Z,1002.18
2018-09-21T02:14:18.131Z,1002.13
2018-09-21T02:15:18.119Z,1002.13
2018-09-21T02:16:18.109Z,1002.16
2018-09-21T02:17:18.098Z,1002.13
2018-09-21T02:18:18.111Z,1002.10
2018-09-21T02:19:18.077Z,1002.13
2018-09-21T02:20:18.064Z,1002.15
2018-09-21T02:21:18.053Z,1002.07
2018-09-21T02:22:18.042Z,1002.04
2018-09-21T02:23:18.054Z,1002.05
2018-09-21T02:24:18.024Z,1002.05
2018-09-21T02:25:18.015Z,1001.99
2018-09-21T02:26:17.998Z,1001.92
2018-09-21T02:27:17.987Z,1001.97
2018-09-21T02:28:18.001Z,1001.92
2018-09-21T02:29:17.965Z,1001.92
2018-09-21T02:30:17.954Z,1001.88
2018-09-21T02:31:17.944Z,1001.86
2018-09-21T02:32:17.935Z,1001.83
2018-09-21T02:33:17.924Z,1001.84
2018-09-21T02:34:17.935Z,1001.82
2018-09-21T02:35:17.899Z,1001.76
2018-09-21T02:36:17.889Z,1001.81
2018-09-21T02:37:17.878Z,1001.76
2018-09-21T02:38:17.868Z,1001.72
2018-09-21T02:39:17.882Z,1001.71
2018-09-21T02:40:17.845Z,1001.69
2018-09-21T02:41:17.939Z,1001.69
2018-09-21T02:42:17.823Z,1001.70
2018-09-21T02:43:17.814Z,1001.67
2018-09-21T02:44:17.825Z,1001.62
2018-09-21T02:45:17.789Z,1001.51
2018-09-21T02:46:17.780Z,1001.49
2018-09-21T02:47:17.766Z,1001.46
2018-09-21T02:48:17.757Z,1001.43
2018-09-21T02:49:17.770Z,1001.40
2018-09-21T02:50:17.733Z,1001.41
2018-09-21T02:51:17.722Z,1001.42
2018-09-21T02:52:17.714Z,1001.41
2018-09-21T02:53:17.705Z,1001.38
2018-09-21T02:54:17.713Z,1001.37
2018-09-21T02:55:17.678Z,1001.36
2018-09-21T02:56:17.667Z,1001.33
2018-09-21T02:57:17.655Z,1001.34
2018-09-21T02:58:17.645Z,1001.30
2018-09-21T02:59:17.660Z,1001.24
2018-09-21T03:00:17.636Z,1001.22
2018-09-21T03:01:17.611Z,1001.24
2018-09-21T03:02:17.601Z,1001.24
2018-09-21T03:03:17.589Z,1001.27
2018-09-21T03:04:17.603Z,1001.26
2018-09-21T03:05:17.567Z,1001.18
2018-09-21T03:06:17.555Z,1001.19
2018-09-21T03:07:17.546Z,1001.18
2018-09-21T03:08:17.532Z,1001.13
2018-09-21T03:09:17.546Z,1001.13
2018-09-21T03:10:17.512Z,1001.11
2018-09-21T03:11:17.500Z,1001.13
2018-09-21T03:12:17.489Z,1001.11
2018-09-21T03:13:17.567Z,1001.14
2018-09-21T03:14:17.491Z,1001.09
2018-09-21T03:15:17.458Z,1001.12
2018-09-21T03:16:17.450Z,1001.05
2018-09-21T03:17:17.433Z,1001.06
2018-09-21T03:18:17.424Z,1001.09
2018-09-21T03:19:17.435Z,1001.07
2018-09-21T03:20:17.400Z,1001.09
2018-09-21T03:21:17.392Z,1001.06
2018-09-21T03:22:17.378Z,1001.04
2018-09-21T03:23:17.366Z,1001.09
2018-09-21T03:24:17.381Z,1001.03
2018-09-21T03:25:17.344Z,1001.00
2018-09-21T03:26:17.332Z,1000.95
2018-09-21T03:27:17.322Z,1000.87
2018-09-21T03:28:17.311Z,1000.85
2018-09-21T03:29:17.324Z,1000.87
2018-09-21T03:30:17.291Z,1000.82
2018-09-21T03:31:17.280Z,1000.86
2018-09-21T03:32:17.268Z,1000.84
2018-09-21T03:33:17.257Z,1000.80
2018-09-21T03:34:17.269Z,1000.78
2018-09-21T03:35:17.241Z,1000.71
2018-09-21T03:36:17.224Z,1000.64
2018-09-21T03:37:17.211Z,1000.79
2018-09-21T03:38:17.201Z,1000.70
2018-09-21T03:39:17.220Z,1000.61
2018-09-21T03:40:17.182Z,1000.59
2018-09-21T03:41:17.167Z,1000.62
2018-09-21T03:42:17.157Z,1000.61
2018-09-21T03:43:17.147Z,1000.62
2018-09-21T03:44:17.159Z,1000.53
2018-09-21T03:45:17.123Z,1000.52
2018-09-21T03:46:17.119Z,1000.51
2018-09-21T03:47:17.103Z,1000.48
2018-09-21T03:48:17.092Z,1000.50
2018-09-21T03:49:17.105Z,1000.45
2018-09-21T03:50:17.068Z,1000.36
2018-09-21T03:51:17.058Z,1000.36
2018-09-21T03:52:17.047Z,1000.30
2018-09-21T03:53:17.038Z,1000.32
2018-09-21T03:54:17.051Z,1000.25
2018-09-21T03:55:17.014Z,1000.30
2018-09-21T03:56:17.003Z,1000.20
2018-09-21T03:57:16.993Z,1000.19
2018-09-21T03:58:16.981Z,1000.21
2018-09-21T03:59:16.993Z,1000.14
2018-09-21T04:00:16.960Z,1000.13
2018-09-21T04:01:17.003Z,1000.15
2018-09-21T04:02:16.935Z,1000.16
2018-09-21T04:03:16.925Z,1000.15
2018-09-21T04:04:16.937Z,1000.09
2018-09-21T04:05:16.903Z,1000.13
2018-09-21T04:06:16.891Z,1000.06
2018-09-21T04:07:16.882Z,1000.07
2018-09-21T04:08:16.869Z,1000.04
2018-09-21T04:09:16.886Z,1000.01
2018-09-21T04:10:16.848Z,1000.04
2018-09-21T04:11:16.835Z,999.98
2018-09-21T04:12:16.824Z,1000.00
2018-09-21T04:13:16.813Z,999.94
2018-09-21T04:14:16.808Z,999.91
2018-09-21T04:15:16.817Z,999.95
2018-09-21T04:16:16.780Z,999.93
2018-09-21T04:17:16.773Z,999.91
2018-09-21T04:18:16.759Z,999.91
2018-09-21T04:19:16.748Z,999.86
2018-09-21T04:20:16.759Z,999.89
2018-09-21T04:21:16.726Z,999.86
2018-09-21T04:22:16.716Z,999.80
2018-09-21T04:23:16.703Z,999.77
2018-09-21T04:24:16.694Z,999.77
2018-09-21T04:25:16.706Z,999.76
2018-09-21T04:26:16.671Z,999.71
2018-09-21T04:27:16.662Z,999.67
2018-09-21T04:28:16.647Z,999.70
2018-09-21T04:29:16.644Z,999.67
2018-09-21T04:30:16.651Z,999.66
2018-09-21T04:31:16.616Z,999.62
2018-09-21T04:32:16.603Z,999.57
2018-09-21T04:33:16.590Z,999.57
2018-09-21T04:34:16.580Z,999.58
2018-09-21T04:35:16.594Z,999.64
2018-09-21T04:36:16.623Z,999.57
2018-09-21T04:37:16.548Z,999.60
2018-09-21T04:38:16.534Z,999.61
2018-09-21T04:39:16.526Z,999.55
2018-09-21T04:40:16.538Z,999.63
2018-09-21T04:41:16.503Z,999.64
2018-09-21T04:42:16.492Z,999.62
2018-09-21T04:43:16.483Z,999.70
2018-09-21T04:44:16.478Z,999.67
2018-09-21T04:45:16.482Z,999.65
2018-09-21T04:46:16.447Z,999.67
2018-09-21T04:47:16.437Z,999.64
2018-09-21T04:48:16.425Z,999.70
2018-09-21T04:49:16.421Z,999.67
2018-09-21T04:50:16.429Z,999.70
2018-09-21T04:51:16.392Z,999.73
2018-09-21T04:52:16.384Z,999.70
2018-09-21T04:53:16.368Z,999.77
2018-09-21T04:54:16.358Z,999.74
2018-09-21T04:55:16.371Z,999.75
2018-09-21T04:56:16.336Z,999.79
2018-09-21T04:57:16.330Z,999.71
2018-09-21T04:58:16.315Z,999.81
2018-09-21T04:59:16.305Z,999.80
2018-09-21T05:00:16.315Z,999.88
2018-09-21T05:01:16.281Z,999.77
2018-09-21T05:02:16.270Z,999.80
2018-09-21T05:03:16.259Z,999.77
2018-09-21T05:04:16.250Z,999.75
2018-09-21T05:05:16.259Z,999.82
2018-09-21T05:06:16.224Z,999.79
2018-09-21T05:07:16.212Z,999.83
2018-09-21T05:08:16.204Z,999.86
2018-09-21T05:09:16.191Z,999.85
2018-09-21T05:10:16.205Z,999.78
2018-09-21T05:11:16.169Z,999.80
2018-09-21T05:12:16.158Z,999.72
2018-09-21T05:13:16.147Z,999.72
2018-09-21T05:14:16.136Z,999.62
2018-09-21T05:15:16.150Z,999.67
2018-09-21T05:16:16.113Z,999.66
2018-09-21T05:17:16.103Z,999.59
2018-09-21T05:18:16.091Z,999.61
2018-09-21T05:19:16.082Z,999.55
2018-09-21T05:20:16.092Z,999.56
2018-09-21T05:21:16.059Z,999.60
2018-09-21T05:22:16.047Z,999.58
2018-09-21T05:23:16.036Z,999.60
2018-09-21T05:24:16.024Z,999.62
2018-09-21T05:25:16.036Z,999.59
2018-09-21T05:26:16.002Z,999.55
2018-09-21T05:27:15.991Z,999.60
2018-09-21T05:28:15.980Z,999.64
2018-09-21T05:29:15.969Z,999.60
2018-09-21T05:30:15.986Z,999.56
2018-09-21T05:31:15.947Z,999.58
2018-09-21T05:32:15.936Z,999.55
2018-09-21T05:33:15.924Z,999.60
2018-09-21T05:34:15.936Z,999.51
2018-09-21T05:35:16.091Z,999.54
2018-09-21T05:36:15.893Z,999.54
2018-09-21T05:37:15.883Z,999.57
2018-09-21T05:38:15.873Z,999.59
2018-09-21T05:39:15.857Z,999.60
2018-09-21T05:40:15.870Z,999.58
2018-09-21T05:41:15.835Z,999.59
2018-09-21T05:42:15.824Z,999.52
2018-09-21T05:43:15.813Z,999.55
2018-09-21T05:44:15.804Z,999.51
2018-09-21T05:45:15.815Z,999.47
2018-09-21T05:46:15.780Z,999.50
2018-09-21T05:47:15.838Z,999.48
2018-09-21T05:48:15.758Z,999.34
2018-09-21T05:49:15.748Z,999.31
2018-09-21T05:50:15.758Z,999.26
2018-09-21T05:51:15.725Z,999.36
2018-09-21T05:52:15.713Z,999.40
2018-09-21T05:53:15.703Z,999.45
2018-09-21T05:54:15.808Z,999.48
2018-09-21T05:55:15.731Z,999.46
2018-09-21T05:56:15.699Z,999.54
2018-09-21T05:57:15.660Z,999.49
2018-09-21T05:58:15.672Z,999.52
2018-09-21T05:59:15.642Z,999.56
2018-09-21T06:00:15.629Z,999.58
2018-09-21T06:01:15.640Z,999.68
2018-09-21T06:02:15.690Z,999.61
2018-09-21T06:03:15.603Z,999.53
2018-09-21T06:04:15.580Z,999.53
2018-09-21T06:05:15.573Z,999.68
2018-09-21T06:06:15.590Z,999.62
2018-09-21T06:07:15.547Z,999.68
2018-09-21T06:08:15.537Z,999.67
2018-09-21T06:09:15.596Z,999.74
2018-09-21T06:10:15.555Z,999.78
2018-09-21T06:11:15.509Z,999.76
2018-09-21T06:12:15.491Z,999.78
2018-09-21T06:13:15.484Z,999.77
2018-09-21T06:14:15.473Z,999.85
2018-09-21T06:15:15.526Z,999.92
2018-09-21T06:16:15.785Z,999.78
2018-09-21T06:17:15.439Z,999.81
2018-09-21T06:18:15.426Z,999.82
2018-09-21T06:19:15.462Z,999.75
2018-09-21T06:20:15.408Z,999.67
2018-09-21T06:21:15.508Z,999.69
2018-09-21T06:22:15.398Z,999.63
2018-09-21T06:23:15.372Z,999.65
2018-09-21T06:24:15.364Z,999.78
2018-09-21T06:25:15.347Z,999.73
2018-09-21T06:26:15.364Z,999.69
2018-09-21T06:27:15.325Z,999.70
2018-09-21T06:28:15.313Z,999.69
2018-09-21T06:29:15.338Z,999.73
2018-09-21T06:30:15.300Z,999.65
2018-09-21T06:31:15.306Z,999.71
2018-09-21T06:32:15.282Z,999.64
2018-09-21T06:33:15.259Z,999.79
2018-09-21T06:34:15.248Z,999.72
2018-09-21T06:35:15.241Z,999.74
2018-09-21T06:36:15.255Z,999.69
2018-09-21T06:37:15.217Z,999.65
2018-09-21T06:38:15.208Z,999.64
2018-09-21T06:39:15.202Z,999.65
2018-09-21T06:40:15.182Z,999.72
2018-09-21T06:41:15.197Z,999.60
2018-09-21T06:42:15.163Z,999.73
2018-09-21T06:43:15.148Z,999.61
2018-09-21T06:44:15.142Z,999.68
2018-09-21T06:45:15.127Z,999.66
2018-09-21T06:46:15.152Z,999.64
2018-09-21T06:47:15.104Z,999.61
2018-09-21T06:48:15.096Z,999.66
2018-09-21T06:49:15.085Z,999.56
2018-09-21T06:50:15.080Z,999.55
2018-09-21T06:51:15.090Z,999.59
2018-09-21T06:52:15.050Z,999.60
2018-09-21T06:53:15.037Z,999.55
2018-09-21T06:54:15.029Z,999.66
2018-09-21T06:55:15.027Z,999.61
2018-09-21T06:56:15.065Z,999.63
2018-09-21T06:57:14.997Z,999.61
2018-09-21T06:58:14.989Z,999.62
2018-09-21T06:59:14.974Z,999.63
2018-09-21T07:00:14.967Z,999.70
2018-09-21T07:01:14.977Z,999.70
2018-09-21T07:02:14.937Z,999.70
2018-09-21T07:03:14.928Z,999.77
2018-09-21T07:04:14.917Z,999.64
2018-09-21T07:05:14.969Z,999.69
2018-09-21T07:06:14.919Z,999.74
2018-09-21T07:07:14.898Z,999.65
2018-09-21T07:08:14.879Z,999.60
2018-09-21T07:09:14.862Z,999.69
2018-09-21T07:10:14.856Z,999.69
2018-09-21T07:11:14.863Z,999.79
2018-09-21T07:12:14.829Z,999.87
2018-09-21T07:13:14.829Z,999.85
2018-09-21T07:14:14.807Z,999.78
2018-09-21T07:15:14.819Z,999.82
2018-09-21T07:16:14.843Z,999.86
2018-09-21T07:17:14.784Z,999.89
2018-09-21T07:18:14.765Z,999.78
2018-09-21T07:19:14.750Z,999.79
2018-09-21T07:20:14.742Z,999.82
2018-09-21T07:21:14.751Z,999.82
2018-09-21T07:22:14.729Z,999.79
2018-09-21T07:23:14.707Z,999.77
2018-09-21T07:24:14.696Z,999.75
2018-09-21T07:25:14.844Z,999.78
2018-09-21T07:26:14.709Z,999.87
2018-09-21T07:27:14.669Z,999.71
2018-09-21T07:28:14.659Z,999.59
2018-09-21T07:29:14.644Z,999.61
2018-09-21T07:30:14.632Z,999.54
2018-09-21T07:31:14.641Z,999.61
2018-09-21T07:32:14.631Z,999.56
2018-09-21T07:33:14.596Z,999.58
2018-09-21T07:34:14.584Z,999.67
2018-09-21T07:35:14.574Z,999.60
2018-09-21T07:36:14.564Z,999.59
2018-09-21T07:37:14.575Z,999.56
2018-09-21T07:38:14.565Z,999.61
2018-09-21T07:39:14.543Z,999.64
2018-09-21T07:40:14.518Z,999.64
2018-09-21T07:41:14.509Z,999.62
2018-09-21T07:42:14.534Z,999.62
2018-09-21T07:43:14.486Z,999.64
2018-09-21T07:44:14.591Z,999.73
2018-09-21T07:45:14.495Z,999.73
2018-09-21T07:46:14.459Z,999.74
2018-09-21T07:47:14.502Z,999.87
2018-09-21T07:48:14.474Z,999.66
2018-09-21T07:49:14.471Z,999.64
2018-09-21T07:50:14.418Z,999.62
2018-09-21T07:51:14.409Z,999.71
2018-09-21T07:52:14.410Z,999.72
2018-09-21T07:53:14.381Z,999.76
2018-09-21T07:54:14.379Z,999.73
2018-09-21T07:55:14.353Z,999.77
2018-09-21T07:56:14.344Z,999.69
2018-09-21T07:57:14.355Z,999.68
2018-09-21T07:58:14.331Z,999.69
2018-09-21T07:59:14.309Z,999.74
2018-09-21T08:00:14.296Z,999.68
2018-09-21T08:01:14.285Z,999.68
2018-09-21T08:02:14.306Z,999.61
2018-09-21T08:03:14.281Z,999.76
2018-09-21T08:04:14.310Z,999.59
2018-09-21T08:05:14.296Z,999.58
2018-09-21T08:06:14.232Z,999.37
2018-09-21T08:07:14.331Z,999.33
2018-09-21T08:08:14.221Z,999.33
2018-09-21T08:09:14.227Z,999.22
2018-09-21T08:10:14.185Z,999.26
2018-09-21T08:11:14.173Z,999.31
2018-09-21T08:12:14.197Z,999.37
2018-09-21T08:13:14.166Z,999.36
2018-09-21T08:14:14.142Z,999.44
2018-09-21T08:15:14.143Z,999.27
2018-09-21T08:16:14.118Z,999.30
2018-09-21T08:17:14.139Z,999.29
2018-09-21T08:18:14.097Z,999.41
2018-09-21T08:19:14.086Z,999.54
2018-09-21T08:20:14.086Z,999.56
2018-09-21T08:21:14.064Z,999.57
2018-09-21T08:22:14.079Z,999.53
2018-09-21T08:23:14.136Z,999.54
2018-09-21T08:24:14.053Z,999.48
2018-09-21T08:25:14.044Z,999.54
2018-09-21T08:26:14.014Z,999.58
2018-09-21T08:27:14.032Z,999.60
2018-09-21T08:28:13.994Z,999.54
2018-09-21T08:29:13.975Z,999.65
2018-09-21T08:30:13.966Z,999.63
2018-09-21T08:31:14.003Z,999.61
2018-09-21T08:32:13.963Z,999.68
2018-09-21T08:33:14.019Z,999.69
2018-09-21T08:34:13.924Z,999.72
2018-09-21T08:35:13.937Z,999.71
2018-09-21T08:36:13.896Z,999.74
2018-09-21T08:37:13.939Z,999.90
2018-09-21T08:38:13.899Z,999.85
2018-09-21T08:39:13.863Z,999.89
2018-09-21T08:40:13.854Z,999.88
2018-09-21T08:41:13.844Z,999.87
2018-09-21T08:42:13.860Z,999.88
2018-09-21T08:43:13.822Z,999.89
2018-09-21T08:44:13.885Z,999.87
2018-09-21T08:45:13.826Z,999.97
2018-09-21T08:46:13.786Z,999.93
2018-09-21T08:47:13.831Z,999.95
2018-09-21T08:48:13.768Z,999.96
2018-09-21T08:49:13.755Z,999.94
2018-09-21T08:50:13.742Z,1000.04
2018-09-21T08:51:13.740Z,1000.01
2018-09-21T08:52:13.782Z,1000.01
2018-09-21T08:53:13.844Z,1000.02
2018-09-21T08:54:14.602Z,1000.00
2018-09-21T08:55:14.107Z,999.97
2018-09-21T08:56:13.976Z,999.95
2018-09-21T08:57:13.788Z,999.99
2018-09-21T08:58:13.653Z,999.92
2018-09-21T08:59:14.084Z,999.80
2018-09-21T09:00:13.696Z,999.76
2018-09-21T09:01:13.696Z,999.87
2018-09-21T09:02:13.632Z,999.78
2018-09-21T09:03:13.754Z,999.88
2018-09-21T09:04:13.587Z,999.93
2018-09-21T09:05:13.609Z,999.78
2018-09-21T09:06:13.589Z,999.80
2018-09-21T09:07:13.578Z,999.84
2018-09-21T09:08:13.552Z,999.87
2018-09-21T09:09:13.536Z,999.93
2018-09-21T09:10:13.521Z,999.86
2018-09-21T09:11:13.520Z,999.84
2018-09-21T09:12:13.499Z,1000.01
2018-09-21T09:13:13.513Z,999.87
2018-09-21T09:14:13.478Z,999.99
2018-09-21T09:15:13.465Z,999.99
2018-09-21T09:16:13.457Z,1000.00
2018-09-21T09:17:13.496Z,1000.10
2018-09-21T09:18:13.468Z,1000.30
2018-09-21T09:19:13.421Z,1000.26
2018-09-21T09:20:13.411Z,1000.33
2018-09-21T09:21:13.399Z,1000.42
2018-09-21T09:22:13.396Z,1000.41
2018-09-21T09:23:13.485Z,1000.53
2018-09-21T09:24:13.394Z,1000.62
2018-09-21T09:25:13.354Z,1000.61
2018-09-21T09:26:13.344Z,1000.54
2018-09-21T09:27:13.332Z,1000.60
2018-09-21T09:28:13.347Z,1000.81
2018-09-21T09:29:13.335Z,1001.03
2018-09-21T09:30:13.298Z,1000.96
2018-09-21T09:31:13.291Z,1001.14
2018-09-21T09:32:13.295Z,1001.15
2018-09-21T09:33:13.288Z,1001.41
2018-09-21T09:34:13.253Z,1001.09
2018-09-21T09:35:13.244Z,1001.15
2018-09-21T09:36:13.237Z,1001.49
2018-09-21T09:37:13.231Z,1001.62
2018-09-21T09:38:13.239Z,1001.42
2018-09-21T09:39:13.246Z,1001.18
2018-09-21T09:40:13.188Z,1001.38
2018-09-21T09:41:13.177Z,1001.73
2018-09-21T09:42:13.166Z,1001.77
2018-09-21T09:43:13.266Z,1001.79
2018-09-21T09:44:13.152Z,1001.88
2018-09-21T09:45:13.145Z,1002.08
2018-09-21T09:46:13.135Z,1002.07
2018-09-21T09:47:13.126Z,1002.07
2018-09-21T09:48:13.154Z,1002.15
2018-09-21T09:49:13.160Z,1002.01
2018-09-21T09:50:13.084Z,1002.00
2018-09-21T09:51:13.076Z,1002.09
2018-09-21T09:52:13.056Z,1002.20
2018-09-21T09:53:13.074Z,1002.18
2018-09-21T09:54:13.076Z,1002.15
2018-09-21T09:55:13.022Z,1002.20
2018-09-21T09:56:13.011Z,1002.22
2018-09-21T09:57:13.009Z,1002.15
2018-09-21T09:58:13.016Z,1002.30
2018-09-21T09:59:12.979Z,1002.32
2018-09-21T10:00:12.966Z,1002.33
2018-09-21T10:01:12.958Z,1002.46
2018-09-21T10:02:12.968Z,1002.38
2018-09-21T10:03:12.960Z,1002.39
2018-09-21T10:04:12.941Z,1002.48
2018-09-21T10:05:12.910Z,1002.54
2018-09-21T10:06:12.993Z,1002.76
2018-09-21T10:07:12.893Z,1002.70
2018-09-21T10:08:12.917Z,1002.76
2018-09-21T10:09:12.866Z,1002.68
2018-09-21T10:10:12.915Z,1002.72
2018-09-21T10:11:12.855Z,1002.75
2018-09-21T10:12:12.833Z,1002.87
2018-09-21T10:13:12.891Z,1003.00
2018-09-21T10:14:12.819Z,1002.90
2018-09-21T10:15:12.801Z,1002.92
2018-09-21T10:16:12.787Z,1002.88
2018-09-21T10:17:12.832Z,1002.95
2018-09-21T10:18:12.800Z,1002.96
2018-09-21T10:19:12.755Z,1002.90
2018-09-21T10:20:12.768Z,1002.86
2018-09-21T10:21:12.736Z,1002.89
2018-09-21T10:22:12.733Z,1002.83
2018-09-21T10:23:12.734Z,1002.80
2018-09-21T10:24:12.746Z,1002.79
2018-09-21T10:25:12.689Z,1002.93
2018-09-21T10:26:12.678Z,1002.77
2018-09-21T10:27:12.714Z,1002.83
2018-09-21T10:28:12.770Z,1002.78
2018-09-21T10:29:12.675Z,1002.86
2018-09-21T10:30:12.634Z,1002.74
2018-09-21T10:31:12.700Z,1002.81
2018-09-21T10:32:12.615Z,1002.88
2018-09-21T10:33:12.649Z,1002.80
2018-09-21T10:34:12.606Z,1002.83
2018-09-21T10:35:12.579Z,1002.85
2018-09-21T10:36:12.595Z,1002.73
2018-09-21T10:37:12.603Z,1002.76
2018-09-21T10:38:12.574Z,1002.78
2018-09-21T10:39:12.563Z,1002.81
2018-09-21T10:40:12.638Z,1002.80
2018-09-21T10:41:12.509Z,1002.90
2018-09-21T10:42:12.535Z,1002.72
2018-09-21T10:43:12.619Z,1002.76
2018-09-21T10:44:12.477Z,1002.75
2018-09-21T10:45:12.464Z,1002.68
2018-09-21T10:46:12.487Z,1002.70
2018-09-21T10:47:12.443Z,1002.68
2018-09-21T10:48:12.457Z,1002.75
2018-09-21T10:49:12.443Z,1002.59
2018-09-21T10:50:12.422Z,1002.63
2018-09-21T10:51:12.399Z,1002.62
2018-09-21T10:52:12.401Z,1002.73
2018-09-21T10:53:12.751Z,1002.64
2018-09-21T10:54:12.389Z,1002.79
2018-09-21T10:55:12.352Z,1002.74
2018-09-21T10:56:12.351Z,1002.76
2018-09-21T10:57:12.329Z,1002.74
2018-09-21T10:58:12.346Z,1002.75
2018-09-21T10:59:12.308Z,1002.69
2018-09-21T11:00:12.298Z,1002.75
2018-09-21T11:01:12.286Z,1002.77
2018-09-21T11:02:12.289Z,1002.71
2018-09-21T11:03:12.265Z,1002.75
2018-09-21T11:04:12.300Z,1002.69
2018-09-21T11:05:12.242Z,1002.66
2018-09-21T11:06:12.236Z,1002.63
2018-09-21T11:07:12.265Z,1002.59
2018-09-21T11:08:12.214Z,1002.60
2018-09-21T11:09:12.221Z,1002.57
2018-09-21T11:10:12.187Z,1002.52
2018-09-21T11:11:12.175Z,1002.49
2018-09-21T11:12:12.165Z,1002.60
2018-09-21T11:13:12.249Z,1002.73
2018-09-21T11:14:12.170Z,1002.63
2018-09-21T11:15:12.137Z,1002.61
2018-09-21T11:16:12.123Z,1002.64
2018-09-21T11:17:12.107Z,1002.66
2018-09-21T11:18:12.103Z,1002.64
2018-09-21T11:19:12.109Z,1002.70
2018-09-21T11:20:12.094Z,1002.68
2018-09-21T11:21:12.071Z,1002.77
2018-09-21T11:22:12.051Z,1002.81
2018-09-21T11:23:12.062Z,1002.82
2018-09-21T11:24:12.055Z,1002.83
2018-09-21T11:25:12.024Z,1002.82
2018-09-21T11:26:12.007Z,1002.77
2018-09-21T11:27:11.997Z,1002.72
2018-09-21T11:28:11.991Z,1002.74
2018-09-21T11:29:12.000Z,1002.67
2018-09-21T11:30:11.967Z,1002.67
2018-09-21T11:31:11.952Z,1002.62
2018-09-21T11:32:11.940Z,1002.63
2018-09-21T11:33:11.969Z,1002.60
2018-09-21T11:34:11.942Z,1002.62
2018-09-21T11:35:11.919Z,1002.67
2018-09-21T11:36:11.895Z,1002.68
2018-09-21T11:37:11.890Z,1002.73
2018-09-21T11:38:11.884Z,1002.75
2018-09-21T11:39:11.886Z,1002.73
2018-09-21T11:40:11.853Z,1002.70
2018-09-21T11:41:11.847Z,1002.77
2018-09-21T11:42:11.828Z,1002.74
2018-09-21T11:43:11.819Z,1002.83
2018-09-21T11:44:11.867Z,1002.83
2018-09-21T11:45:11.796Z,1002.84
2018-09-21T11:46:11.882Z,1002.84
2018-09-21T11:47:11.847Z,1002.91
2018-09-21T11:48:11.762Z,1002.79
2018-09-21T11:49:11.782Z,1002.84
2018-09-21T11:50:11.740Z,1002.94
2018-09-21T11:51:11.728Z,1003.00
2018-09-21T11:52:11.739Z,1003.00
2018-09-21T11:53:11.707Z,1003.09
2018-09-21T11:54:11.721Z,1003.19
2018-09-21T11:55:11.690Z,1003.10
2018-09-21T11:56:11.674Z,1003.10
2018-09-21T11:57:11.661Z,1003.13
2018-09-21T11:58:11.653Z,1003.09
2018-09-21T11:59:11.665Z,1003.10
2018-09-21T12:00:11.632Z,1003.11
2018-09-21T12:01:11.723Z,1003.18
2018-09-21T12:02:11.608Z,1003.14
2018-09-21T12:03:11.597Z,1003.08
2018-09-21T12:04:11.609Z,1003.06
2018-09-21T12:05:11.575Z,1003.02
2018-09-21T12:06:11.562Z,1002.97
2018-09-21T12:07:11.588Z,1002.91
2018-09-21T12:08:11.735Z,1002.87
2018-09-21T12:09:11.657Z,1002.94
2018-09-21T12:10:11.518Z,1002.88
2018-09-21T12:11:11.718Z,1002.86
2018-09-21T12:12:11.497Z,1002.88
2018-09-21T12:13:11.484Z,1002.94
2018-09-21T12:14:11.499Z,1002.96